Time;durP1;ratioP1;P1;durP2;ratioP2;P2;SDS_P1;SDS_P2;PMS_P1;PMS_P2;Temp;Humidity;BMP_temperature;BMP_pressure;BME280_temperature;BME280_humidity;BME280_pressure;Samples;Min_cycle;Max_cycle;Signal;HPM_P1;HPM_P2
2023/09/07 00:02:18;;;;;;;9.00;6.67;;;;;;;18.10;100.00;102249.81;7368650;19;20535;-37
2023/09/07 00:05:07;;;;;;;9.43;7.00;;;;;;;18.06;100.00;102251.44;7391963;19;20509;-36
2023/09/07 00:07:37;;;;;;;9.80;6.90;;;;;;;18.04;100.00;102249.56;7394990;19;20418;-37
2023/09/07 00:10:08;;;;;;;9.83;6.27;;;;;;;18.02;100.00;102244.31;7371282;19;20479;-36
2023/09/07 00:12:39;;;;;;;9.30;6.93;;;;;;;18.03;100.00;102240.84;7392669;19;20451;-39
2023/09/07 00:15:10;;;;;;;11.80;6.33;;;;;;;18.00;100.00;102240.75;7368520;19;20432;-37
2023/09/07 00:17:40;;;;;;;8.73;6.97;;;;;;;17.97;100.00;102239.75;7392898;19;20408;-37
2023/09/07 00:20:14;;;;;;;9.37;7.10;;;;;;;17.99;100.00;102236.34;7369177;19;20759;-37
2023/09/07 00:22:43;;;;;;;9.87;6.17;;;;;;;17.98;100.00;102234.59;7390119;19;20447;-37
2023/09/07 00:25:13;;;;;;;11.20;6.27;;;;;;;17.94;100.00;102233.59;7370489;19;20414;-37
2023/09/07 00:27:43;;;;;;;8.50;6.20;;;;;;;17.92;100.00;102232.66;7392386;19;20419;-37
2023/09/07 00:30:14;;;;;;;8.97;6.70;;;;;;;17.84;100.00;102239.31;7368418;19;20407;-39
2023/09/07 00:32:44;;;;;;;8.37;6.30;;;;;;;17.81;100.00;102234.88;7391455;19;20864;-37
2023/09/07 00:35:16;;;;;;;9.37;6.90;;;;;;;17.83;100.00;102232.31;7368524;19;20408;-37
2023/09/07 00:37:45;;;;;;;13.90;6.47;;;;;;;17.81;100.00;102226.16;7392708;19;20404;-37
2023/09/07 00:40:15;;;;;;;101.07;71.83;;;;;;;17.85;100.00;102222.84;7368865;19;20408;-37
2023/09/07 00:42:45;;;;;;;20.20;15.13;;;;;;;17.89;100.00;102216.88;7391487;19;20443;-37
2023/09/07 00:45:14;;;;;;;19.70;13.80;;;;;;;17.84;100.00;102221.03;7368873;19;20403;-37
2023/09/07 00:47:44;;;;;;;17.53;12.47;;;;;;;17.83;100.00;102221.88;7391877;19;21021;-38
2023/09/07 00:50:16;;;;;;;7.13;6.40;;;;;;;17.88;100.00;102217.72;7367824;19;20391;-37
2023/09/07 00:52:46;;;;;;;10.70;8.07;;;;;;;17.86;100.00;102222.00;7391664;19;20441;-37
2023/09/07 00:55:16;;;;;;;11.10;8.90;;;;;;;17.81;100.00;102218.34;7368379;19;20406;-38
2023/09/07 00:57:46;;;;;;;8.70;6.47;;;;;;;17.72;100.00;102223.22;7391567;19;20399;-38
2023/09/07 01:00:16;;;;;;;8.87;7.37;;;;;;;17.68;100.00;102223.13;7367867;19;20416;-37
2023/09/07 01:02:46;;;;;;;18.53;7.27;;;;;;;17.64;100.00;102225.59;7390880;19;20792;-37
2023/09/07 01:05:19;;;;;;;8.70;6.60;;;;;;;17.57;100.00;102211.41;7368253;19;20435;-41
2023/09/07 01:07:50;;;;;;;7.53;6.57;;;;;;;17.62;100.00;102209.84;7393817;19;20410;-37
2023/09/07 01:10:22;;;;;;;14.50;7.87;;;;;;;17.57;100.00;102210.53;7367746;19;20939;-36
2023/09/07 01:12:52;;;;;;;11.20;7.73;;;;;;;17.52;100.00;102205.13;7390689;19;20459;-37
2023/09/07 01:15:21;;;;;;;10.37;7.90;;;;;;;17.47;100.00;102196.25;7367608;19;20415;-37
2023/09/07 01:17:51;;;;;;;10.30;7.50;;;;;;;17.39;100.00;102194.25;7390934;19;20404;-37
2023/09/07 01:20:24;;;;;;;9.30;7.23;;;;;;;17.33;100.00;102185.34;7369636;19;20407;-37
2023/09/07 01:22:58;;;;;;;8.17;6.20;;;;;;;17.31;100.00;102173.94;7391227;19;20439;-37
2023/09/07 01:25:28;;;;;;;10.30;7.07;;;;;;;17.23;100.00;102182.38;7362374;19;20391;-37
2023/09/07 01:27:57;;;;;;;13.00;7.20;;;;;;;17.24;100.00;102170.22;7393340;19;20428;-38
2023/09/07 01:30:29;;;;;;;10.13;6.93;;;;;;;17.22;100.00;102164.09;7366422;19;20398;-37
2023/09/07 01:32:59;;;;;;;8.07;6.63;;;;;;;17.20;100.00;102155.28;7390678;19;21003;-36
2023/09/07 01:35:29;;;;;;;10.77;7.40;;;;;;;17.17;100.00;102148.25;7371141;19;20522;-36
2023/09/07 01:38:01;;;;;;;9.13;7.70;;;;;;;17.15;100.00;102142.09;7400564;19;20410;-36
2023/09/07 01:40:31;;;;;;;8.90;6.90;;;;;;;17.13;100.00;102130.72;7373488;19;20391;-36
2023/09/07 01:43:01;;;;;;;8.90;7.30;;;;;;;17.13;100.00;102134.22;7396683;19;20431;-37
2023/09/07 01:45:30;;;;;;;10.77;8.20;;;;;;;17.10;100.00;102133.22;7373420;19;20474;-39
2023/09/07 01:48:01;;;;;;;10.37;7.77;;;;;;;17.09;100.00;102127.13;7398387;19;20432;-36
2023/09/07 01:50:31;;;;;;;11.20;6.87;;;;;;;17.08;100.00;102125.31;7373364;19;20390;-36
2023/09/07 01:53:04;;;;;;;9.33;7.20;;;;;;;17.01;100.00;102125.91;7397148;19;20468;-36
2023/09/07 01:55:34;;;;;;;9.43;7.70;;;;;;;16.94;100.00;102131.72;7373158;19;20387;-36
2023/09/07 01:58:04;;;;;;;11.60;7.83;;;;;;;16.89;100.00;102136.78;7397448;19;20399;-36
2023/09/07 02:00:33;;;;;;;9.00;7.37;;;;;;;16.90;100.00;102129.81;7374563;19;20462;-36
2023/09/07 02:03:03;;;;;;;11.67;7.87;;;;;;;16.83;100.00;102127.00;7397620;19;20798;-39
2023/09/07 02:05:32;;;;;;;19.33;7.97;;;;;;;16.78;100.00;102122.44;7372407;19;20946;-36
2023/09/07 02:08:06;;;;;;;9.33;7.47;;;;;;;16.69;100.00;102130.78;7397625;19;21220;-37
2023/09/07 02:10:35;;;;;;;10.00;8.47;;;;;;;16.64;100.00;102127.13;7372832;19;20395;-36
2023/09/07 02:13:06;;;;;;;8.30;7.40;;;;;;;16.55;100.00;102120.75;7396455;19;20451;-36
2023/09/07 02:15:35;;;;;;;9.10;7.80;;;;;;;16.50;100.00;102130.09;7372386;19;20391;-36
2023/09/07 02:18:05;;;;;;;12.13;6.93;;;;;;;16.43;100.00;102128.97;7397300;19;20966;-37
2023/09/07 02:20:35;;;;;;;11.30;7.70;;;;;;;16.41;100.00;102132.34;7372589;19;20466;-36
2023/09/07 02:23:08;;;;;;;8.83;7.93;;;;;;;16.39;100.00;102131.38;7396462;19;20450;-37
2023/09/07 02:25:37;;;;;;;9.90;8.27;;;;;;;16.40;100.00;102127.97;7372262;19;20824;-39
2023/09/07 02:28:07;;;;;;;10.93;7.60;;;;;;;16.41;100.00;102130.59;7396980;19;20408;-36
2023/09/07 02:30:37;;;;;;;8.90;7.10;;;;;;;16.36;100.00;102123.44;7371692;19;20415;-37
2023/09/07 02:33:07;;;;;;;9.37;7.77;;;;;;;16.39;100.00;102131.38;7396783;19;20453;-37
2023/09/07 02:35:39;;;;;;;10.50;8.67;;;;;;;16.40;100.00;102133.19;7371770;19;20511;-37
2023/09/07 02:38:13;;;;;;;12.93;8.40;;;;;;;16.41;100.00;102129.75;7395526;19;20407;-37
2023/09/07 02:40:44;;;;;;;10.00;7.90;;;;;;;16.41;100.00;102121.94;7372011;19;20404;-37
2023/09/07 02:43:13;;;;;;;10.20;8.20;;;;;;;16.40;100.00;102128.84;7394637;19;20459;-37
2023/09/07 02:45:43;;;;;;;12.73;8.50;;;;;;;16.40;100.00;102117.56;7370275;19;20419;-37
2023/09/07 02:48:13;;;;;;;8.27;7.23;;;;;;;16.35;100.00;102127.75;7397350;19;20423;-37
2023/09/07 02:50:45;;;;;;;12.33;8.37;;;;;;;16.38;100.00;102119.19;7372458;19;20768;-37
2023/09/07 02:53:17;;;;;;;10.30;8.60;;;;;;;16.46;100.00;102123.00;7394427;19;20443;-37
2023/09/07 02:55:46;;;;;;;12.90;8.83;;;;;;;16.41;100.00;102124.53;7371766;19;20434;-37
2023/09/07 02:58:16;;;;;;;13.90;9.87;;;;;;;16.36;100.00;102126.94;7395148;19;20439;-37
2023/09/07 03:00:47;;;;;;;11.77;8.90;;;;;;;16.33;100.00;102122.53;7372512;19;20896;-37
2023/09/07 03:03:17;;;;;;;16.30;9.10;;;;;;;16.29;100.00;102133.63;7394546;19;20471;-37
2023/09/07 03:05:47;;;;;;;12.00;8.90;;;;;;;16.23;100.00;102133.38;7371295;19;20399;-37
2023/09/07 03:08:19;;;;;;;12.40;9.30;;;;;;;16.27;100.00;102140.50;7397370;19;20406;-37
2023/09/07 03:10:49;;;;;;;17.30;9.40;;;;;;;16.26;100.00;102138.69;7370807;19;20407;-37
2023/09/07 03:13:18;;;;;;;35.63;22.70;;;;;;;16.20;100.00;102126.34;7393339;19;20451;-36
2023/09/07 03:15:48;;;;;;;40.50;26.77;;;;;;;16.27;100.00;102127.47;7369835;19;20455;-37
2023/09/07 03:18:18;;;;;;;39.03;25.00;;;;;;;16.33;100.00;102125.13;7394401;19;20951;-37
2023/09/07 03:20:47;;;;;;;24.97;14.93;;;;;;;16.38;100.00;102121.78;7372265;19;20411;-37
2023/09/07 03:23:19;;;;;;;20.80;12.30;;;;;;;16.42;100.00;102126.31;7393495;19;20439;-37
2023/09/07 03:25:49;;;;;;;16.00;12.10;;;;;;;16.38;100.00;102121.78;7371007;19;20407;-37
2023/09/07 03:28:18;;;;;;;28.73;18.57;;;;;;;16.33;100.00;102117.31;7394312;19;20434;-37
2023/09/07 03:30:48;;;;;;;19.17;13.63;;;;;;;16.36;100.00;102123.44;7370242;19;20395;-36
2023/09/07 03:33:18;;;;;;;16.63;13.03;;;;;;;16.33;100.00;102122.53;7392806;19;20978;-37
2023/09/07 03:35:47;;;;;;;16.53;12.50;;;;;;;16.31;100.00;102124.16;7371725;19;20410;-37
2023/09/07 03:38:20;;;;;;;15.07;12.07;;;;;;;16.26;100.00;102141.31;7394268;19;20831;-37
2023/09/07 03:40:49;;;;;;;17.27;13.20;;;;;;;16.22;100.00;102136.81;7370271;19;21013;-37
2023/09/07 03:43:20;;;;;;;16.97;12.10;;;;;;;16.13;100.00;102152.03;7392529;19;20511;-37
2023/09/07 03:45:49;;;;;;;16.27;12.17;;;;;;;16.15;100.00;102153.03;7370318;19;20395;-38
2023/09/07 03:48:19;;;;;;;15.10;11.20;;;;;;;16.13;100.00;102152.94;7394163;19;20411;-37
2023/09/07 03:50:49;;;;;;;14.40;10.80;;;;;;;16.06;100.00;102149.19;7370121;19;20395;-36
2023/09/07 03:53:21;;;;;;;13.73;11.37;;;;;;;16.05;100.00;102150.03;7392692;19;20807;-36
2023/09/07 03:55:50;;;;;;;15.40;10.60;;;;;;;16.04;100.00;102150.84;7370063;19;20400;-36
2023/09/07 03:58:20;;;;;;;17.47;11.60;;;;;;;16.09;100.00;102156.25;7391136;19;20487;-37
2023/09/07 04:00:49;;;;;;;12.47;10.27;;;;;;;16.15;100.00;102153.03;7369237;19;20399;-36
2023/09/07 04:03:19;;;;;;;45.97;31.93;;;;;;;16.16;100.00;102150.44;7392923;19;20526;-37
2023/09/07 04:05:49;;;;;;;15.20;12.33;;;;;;;16.30;100.00;102151.03;7370219;19;20403;-37
2023/09/07 04:08:21;;;;;;;19.93;13.30;;;;;;;16.45;100.00;102142.03;7393491;19;20423;-37
2023/09/07 04:10:51;;;;;;;24.50;16.07;;;;;;;16.42;100.00;102147.13;7369590;19;20399;-37
2023/09/07 04:13:20;;;;;;;24.00;15.63;;;;;;;16.42;100.00;102149.75;7391852;19;21015;-36
2023/09/07 04:15:50;;;;;;;28.00;17.73;;;;;;;16.34;100.00;102149.44;7369002;19;20395;-36
2023/09/07 04:18:20;;;;;;;19.43;12.70;;;;;;;16.37;100.00;102146.06;7387469;19;20400;-41
2023/09/07 04:20:49;;;;;;;17.60;13.37;;;;;;;16.31;100.00;102158.00;7368550;19;20861;-42
2023/09/07 04:23:21;;;;;;;17.47;12.70;;;;;;;16.23;100.00;102161.13;7393570;19;20416;-43
2023/09/07 04:25:51;;;;;;;23.20;16.97;;;;;;;16.25;100.00;102155.16;7370365;19;20406;-44
2023/09/07 04:28:20;;;;;;;22.70;16.27;;;;;;;16.29;100.00;102161.38;7394626;19;20400;-42
2023/09/07 04:30:50;;;;;;;38.70;25.13;;;;;;;16.33;100.00;102168.50;7369397;19;20395;-42
2023/09/07 04:33:20;;;;;;;51.93;34.73;;;;;;;16.31;100.00;102170.16;7392518;19;20399;-44
2023/09/07 04:35:49;;;;;;;51.43;34.20;;;;;;;16.46;100.00;102169.88;7368836;19;20407;-42
2023/09/07 04:38:21;;;;;;;28.17;18.80;;;;;;;16.46;100.00;102175.09;7392919;19;20403;-42
2023/09/07 04:40:51;;;;;;;26.60;17.03;;;;;;;16.53;100.00;102184.94;7368023;19;20399;-45
2023/09/07 04:43:21;;;;;;;18.00;14.70;;;;;;;16.62;100.00;102191.31;7392034;19;20404;-45
2023/09/07 04:45:50;;;;;;;37.80;24.50;;;;;;;16.57;100.00;102199.81;7370735;19;20433;-48
2023/09/07 04:48:20;;;;;;;29.70;18.60;;;;;;;16.65;100.00;102209.66;7392819;19;20408;-47
2023/09/07 04:50:50;;;;;;;23.60;17.23;;;;;;;16.70;100.00;102209.03;7368878;19;20738;-43
2023/09/07 04:53:23;;;;;;;17.30;13.40;;;;;;;16.70;100.00;102221.16;7393628;19;20412;-43
2023/09/07 04:55:52;;;;;;;15.90;13.27;;;;;;;16.69;100.00;102230.72;7368955;19;20423;-44
2023/09/07 04:58:22;;;;;;;20.23;14.30;;;;;;;16.73;100.00;102237.81;7392375;19;20478;-46
2023/09/07 05:00:52;;;;;;;173.50;113.07;;;;;;;16.63;100.00;102247.81;7368185;19;20490;-43
2023/09/07 05:03:21;;;;;;;17.73;13.90;;;;;;;16.61;100.00;102252.94;7391398;19;20732;-45
2023/09/07 05:05:56;;;;;;;48.03;31.77;;;;;;;16.75;100.00;102258.72;7369288;19;20399;-43
2023/09/07 05:08:28;;;;;;;18.00;13.33;;;;;;;16.71;100.00;102254.22;7392583;19;20412;-42
2023/09/07 05:10:59;;;;;;;28.53;16.63;;;;;;;16.64;100.00;102263.50;7368519;19;20435;-44
2023/09/07 05:13:29;;;;;;;30.20;19.40;;;;;;;16.78;100.00;102266.69;7391811;19;20406;-46
2023/09/07 05:16:04;;;;;;;20.63;15.10;;;;;;;16.66;100.00;102276.59;7369417;19;20860;-44
2023/09/07 05:18:34;;;;;;;21.70;15.07;;;;;;;16.60;100.00;102272.91;7391962;19;20434;-42
2023/09/07 05:21:13;;;;;;;28.53;16.07;;;;;;;16.52;100.00;102276.03;7369385;19;20957;-45
2023/09/07 05:23:46;;;;;;;20.07;12.87;;;;;;;16.37;100.00;102276.28;7393797;19;20413;-45
2023/09/07 05:26:16;;;;;;;30.60;17.03;;;;;;;16.34;100.00;102271.81;7367483;19;20947;-46
2023/09/07 05:28:45;;;;;;;26.60;18.17;;;;;;;16.37;100.00;102268.47;7393401;19;20532;-43
2023/09/07 05:31:15;;;;;;;27.37;16.37;;;;;;;16.31;100.00;102259.56;7367149;19;20436;-44
2023/09/07 05:33:45;;;;;;;38.27;24.37;;;;;;;16.33;100.00;102263.16;7391474;19;20412;-48
2023/09/07 05:36:14;;;;;;;19.90;12.23;;;;;;;16.25;100.00;102264.50;7366984;19;20432;-46
2023/09/07 05:38:47;;;;;;;19.80;14.07;;;;;;;16.23;100.00;102263.56;7391791;19;20456;-45
2023/09/07 05:41:16;;;;;;;19.33;12.87;;;;;;;16.28;100.00;102254.25;7366856;19;20415;-46
2023/09/07 05:43:46;;;;;;;17.77;11.10;;;;;;;16.30;100.00;102252.59;7391125;19;20495;-44
2023/09/07 05:46:15;;;;;;;25.70;14.60;;;;;;;16.28;100.00;102249.03;7366297;19;21179;-47
2023/09/07 05:48:45;;;;;;;14.43;10.30;;;;;;;16.24;100.00;102241.03;7392389;19;20468;-43
2023/09/07 05:51:15;;;;;;;24.07;14.83;;;;;;;16.25;100.00;102240.22;7367234;19;20443;-46
2023/09/07 05:53:47;;;;;;;15.40;12.40;;;;;;;16.35;100.00;102238.88;7390468;19;20486;-43
2023/09/07 05:56:17;;;;;;;25.80;13.20;;;;;;;16.40;100.00;102237.34;7366989;19;20439;-44
2023/09/07 05:58:46;;;;;;;17.87;12.10;;;;;;;16.41;100.00;102240.00;7391317;19;20456;-45
2023/09/07 06:01:16;;;;;;;15.23;11.80;;;;;;;16.38;100.00;102239.00;7363087;19;20837;-46
2023/09/07 06:03:46;;;;;;;23.73;13.40;;;;;;;16.41;100.00;102242.59;7390670;19;20418;-47
2023/09/07 06:06:16;;;;;;;19.57;13.60;;;;;;;16.43;100.00;102247.88;7366758;19;20479;-45
2023/09/07 06:08:48;;;;;;;21.67;14.97;;;;;;;16.50;100.00;102239.50;7390308;19;20460;-45
2023/09/07 06:11:18;;;;;;;23.60;17.43;;;;;;;16.55;100.00;102237.97;7364885;19;20419;-46
2023/09/07 06:13:49;;;;;;;25.73;13.23;;;;;;;16.62;100.00;102251.25;7392072;19;20475;-43
2023/09/07 06:16:18;;;;;;;20.77;12.30;;;;;;;16.60;100.00;102249.47;7366338;19;20513;-43
2023/09/07 06:18:49;;;;;;;14.40;10.50;;;;;;;16.63;100.00;102255.63;7390087;19;20877;-44
2023/09/07 06:21:18;;;;;;;19.20;12.50;;;;;;;16.69;100.00;102259.38;7368034;19;20418;-47
2023/09/07 06:23:51;;;;;;;13.50;10.20;;;;;;;16.77;100.00;102262.28;7399571;19;20420;-44
2023/09/07 06:26:21;;;;;;;12.13;9.00;;;;;;;16.79;100.00;102260.63;7368700;19;20505;-46
2023/09/07 06:28:50;;;;;;;16.73;10.90;;;;;;;16.82;100.00;102268.56;7396051;19;20539;-44
2023/09/07 06:31:20;;;;;;;11.63;10.13;;;;;;;16.89;100.00;102269.72;7371093;19;20447;-47
2023/09/07 06:33:50;;;;;;;11.70;9.50;;;;;;;16.93;100.00;102266.41;7394852;19;20934;-43
2023/09/07 06:36:19;;;;;;;12.50;9.50;;;;;;;16.99;100.00;102281.38;7371537;19;20431;-46
2023/09/07 06:39:09;;;;;;;13.20;9.40;;;;;;;17.08;100.00;102278.28;7399367;19;20439;-46
2023/09/07 06:41:38;;;;;;;13.63;10.37;;;;;;;17.13;100.00;102289.78;7377012;19;20415;-44
2023/09/07 06:44:08;;;;;;;14.33;9.73;;;;;;;17.16;100.00;102294.25;7402984;19;20785;-50
2023/09/07 06:46:37;;;;;;;12.83;10.20;;;;;;;17.21;100.00;102298.78;7377676;19;20466;-48
2023/09/07 06:49:07;;;;;;;15.70;9.17;;;;;;;17.27;100.00;102296.41;7403995;19;20439;-46
2023/09/07 06:51:37;;;;;;;14.07;9.70;;;;;;;17.33;100.00;102307.94;7379789;19;20442;-45
2023/09/07 06:54:09;;;;;;;14.43;9.93;;;;;;;17.41;100.00;102311.72;7405750;19;20420;-44
2023/09/07 06:56:39;;;;;;;15.20;10.80;;;;;;;17.46;100.00;102322.31;7379191;19;20534;-46
2023/09/07 06:59:09;;;;;;;10.90;8.90;;;;;;;17.53;100.00;102326.94;7403073;19;20467;-45
2023/09/07 07:01:38;;;;;;;10.43;8.30;;;;;;;17.57;100.00;102333.19;7376838;19;20907;-45
2023/09/07 07:04:09;;;;;;;12.00;8.60;;;;;;;17.65;100.00;102331.75;7404896;19;20400;-45
2023/09/07 07:06:39;;;;;;;12.67;8.63;;;;;;;17.68;100.00;102335.34;7376994;19;20519;-46
2023/09/07 07:09:11;;;;;;;11.67;8.90;;;;;;;17.74;100.00;102329.47;7403196;19;20811;-46
2023/09/07 07:11:42;;;;;;;12.43;9.37;;;;;;;17.79;100.00;102330.53;7377360;19;20450;-48
2023/09/07 07:16:54;;;;;;;10.13;7.73;;;;;;;17.94;100.00;102345.88;7377758;19;21112;-48
2023/09/07 07:19:24;;;;;;;15.20;8.53;;;;;;;18.00;100.00;102342.56;7401021;19;20821;-45
2023/09/07 07:21:54;;;;;;;13.10;8.30;;;;;;;18.08;100.00;102342.88;7375356;19;20455;-47
2023/09/07 07:24:26;;;;;;;11.47;8.20;;;;;;;18.17;100.00;102351.06;7401349;19;20419;-45
2023/09/07 07:26:56;;;;;;;12.40;7.40;;;;;;;18.29;100.00;102352.31;7378273;19;20438;-48
2023/09/07 07:29:25;;;;;;;16.33;8.87;;;;;;;18.37;100.00;102349.97;7402282;19;20926;-46
2023/09/07 07:31:55;;;;;;;13.23;8.23;;;;;;;18.48;100.00;102359.97;7375706;19;20439;-47
2023/09/07 07:34:25;;;;;;;11.37;7.10;;;;;;;18.60;100.00;102363.81;7401397;19;20423;-45
2023/09/07 07:36:54;;;;;;;9.93;7.47;;;;;;;18.68;100.00;102367.59;7376332;19;20483;-48
2023/09/07 07:39:26;;;;;;;10.73;7.50;;;;;;;18.75;100.00;102372.19;7401342;19;20495;-46
2023/09/07 07:41:56;;;;;;;10.47;7.87;;;;;;;18.86;100.00;102379.50;7377060;19;20455;-50
2023/09/07 07:44:26;;;;;;;9.60;7.47;;;;;;;18.98;100.00;102386.88;7402916;19;20488;-47
2023/09/07 07:46:55;;;;;;;16.93;11.37;;;;;;;19.05;100.00;102393.19;7376913;19;20505;-45
2023/09/07 07:49:27;;;;;;;16.87;10.27;;;;;;;19.15;100.00;102395.28;7402169;19;20971;-45
2023/09/07 07:51:58;;;;;;;9.03;6.80;;;;;;;19.26;100.00;102404.38;7377618;19;20423;-51
2023/09/07 07:54:31;;;;;;;8.97;6.70;;;;;;;19.38;100.00;102416.94;7400803;19;21219;-49
2023/09/07 07:57:00;;;;;;;9.07;7.10;;;;;;;19.51;100.00;102415.63;7374247;19;20467;-46
2023/09/07 07:59:30;;;;;;;10.40;7.13;;;;;;;19.62;100.00;102428.13;7395909;19;20791;-48
2023/09/07 08:02:00;;;;;;;16.07;9.70;;;;;;;19.70;100.00;102430.13;7369594;19;20456;-47
2023/09/07 08:04:32;;;;;;;9.40;6.30;;;;;;;19.84;100.00;102442.75;7395600;19;20416;-50
2023/09/07 08:07:03;;;;;;;30.07;7.37;;;;;;;19.97;100.00;102446.66;7370151;19;20451;-49
2023/09/07 08:09:38;;;;;;;12.63;9.07;;;;;;;20.06;100.00;102446.06;7396413;19;20452;-47
2023/09/07 08:12:08;;;;;;;15.70;10.30;;;;;;;20.14;100.00;102456.78;7371001;19;20492;-46
2023/09/07 08:14:38;;;;;;;20.70;12.30;;;;;;;20.22;100.00;102466.63;7395679;19;20407;-47
2023/09/07 08:17:10;;;;;;;20.77;12.57;;;;;;;20.32;100.00;102474.75;7371374;19;20432;-51
2023/09/07 08:19:40;;;;;;;21.43;13.30;;;;;;;20.42;100.00;102466.31;7394405;19;20514;-50
2023/09/07 08:22:10;;;;;;;15.70;9.30;;;;;;;20.52;100.00;102480.56;7368405;19;20477;-46
2023/09/07 08:24:44;;;;;;;11.20;7.23;;;;;;;20.61;100.00;102493.03;7396030;19;20419;-47
2023/09/07 08:27:18;;;;;;;10.07;7.80;;;;;;;20.74;100.00;102520.44;7371405;19;20526;-45
2023/09/07 08:29:51;;;;;;;21.40;14.70;;;;;;;20.87;100.00;102527.84;7396212;19;20459;-49
2023/09/07 08:32:22;;;;;;;10.03;6.50;;;;;;;21.01;100.00;102541.34;7368873;19;20463;-45
2023/09/07 08:34:56;;;;;;;14.67;9.33;;;;;;;21.13;100.00;102561.75;7396704;19;20416;-46
2023/09/07 08:37:26;;;;;;;13.87;9.17;;;;;;;21.23;100.00;102577.75;7370758;19;20439;-47
2023/09/07 08:39:59;;;;;;;25.73;13.63;;;;;;;21.30;100.00;102595.44;7395524;19;20555;-50
2023/09/07 08:42:29;;;;;;;12.57;8.80;;;;;;;21.39;100.00;102595.66;7371032;19;20822;-46
2023/09/07 08:45:00;;;;;;;13.00;8.93;;;;;;;21.48;100.00;102607.25;7393736;19;20415;-45
2023/09/07 08:47:31;;;;;;;10.80;7.47;;;;;;;21.65;100.00;102613.84;7373223;19;20451;-44
2023/09/07 08:50:01;;;;;;;17.60;11.23;;;;;;;21.74;100.00;102612.31;7395759;19;20887;-49
2023/09/07 08:52:31;;;;;;;11.50;6.27;;;;;;;21.81;100.00;102623.00;7371775;19;20462;-51
2023/09/07 08:55:04;;;;;;;8.17;6.37;;;;;;;21.96;100.00;102609.31;7395884;19;20496;-45
2023/09/07 08:57:34;;;;;;;10.27;6.73;;;;;;;22.08;100.00;102602.59;7371712;19;20443;-45
2023/09/07 09:00:08;;;;;;;9.43;6.90;;;;;;;22.21;100.00;102596.75;7387718;19;20502;-45
2023/09/07 09:02:38;;;;;;;10.60;6.60;;;;;;;22.29;100.00;102589.03;7395113;19;20410;-50
2023/09/07 09:05:08;;;;;;;13.80;9.10;;;;;;;22.41;100.00;102574.41;7365512;19;20424;-49
2023/09/07 09:07:38;;;;;;;21.03;13.43;;;;;;;22.53;100.00;102579.94;7392960;19;21104;-50
2023/09/07 09:10:11;;;;;;;19.33;12.13;;;;;;;22.68;100.00;102544.28;7370534;19;20448;-50
2023/09/07 09:12:50;;;;;;;16.80;10.50;;;;;;;22.84;100.00;102499.00;7391860;19;20420;-52
2023/09/07 09:15:20;;;;;;;23.80;13.87;;;;;;;22.98;100.00;102428.19;7367225;19;20427;-47
2023/09/07 09:17:49;;;;;;;49.60;26.03;;;;;;;23.03;100.00;102365.09;7392925;19;20421;-44
2023/09/07 09:20:26;;;;;;;23.77;14.07;;;;;;;23.16;100.00;102264.41;7368844;19;20814;-49
2023/09/07 09:22:57;;;;;;;38.73;21.00;;;;;;;23.23;100.00;102218.00;7392315;19;20415;-49
2023/09/07 09:25:29;;;;;;;12.53;8.10;;;;;;;23.40;100.00;102147.13;7370903;19;20418;-49
2023/09/07 09:27:59;;;;;;;16.73;9.43;;;;;;;23.49;100.00;102105.94;7392811;19;20769;-46
2023/09/07 09:30:29;;;;;;;27.77;13.37;;;;;;;23.54;100.00;102052.44;7368342;19;20407;-51
2023/09/07 09:32:59;;;;;;;35.93;20.80;;;;;;;23.57;100.00;102028.75;7394047;19;20416;-46
2023/09/07 09:35:29;;;;;;;23.73;12.40;;;;;;;23.68;100.00;102012.16;7366410;19;20959;-45
2023/09/07 09:38:04;;;;;;;8.80;5.00;;;;;;;23.76;100.00;101934.06;7392596;19;20429;-50
2023/09/07 09:40:37;;;;;;;30.00;18.53;;;;;;;23.86;100.00;101912.16;7368257;19;20493;-47
2023/09/07 09:43:08;;;;;;;18.73;9.90;;;;;;;23.96;100.00;101873.56;7392490;19;20403;-47
2023/09/07 09:45:38;;;;;;;73.37;38.87;;;;;;;24.07;100.00;101873.63;7367017;19;20479;-51
2023/09/07 09:48:08;;;;;;;35.00;20.33;;;;;;;24.09;100.00;101863.94;7391962;19;20402;-45
2023/09/07 09:50:39;;;;;;;19.83;12.17;;;;;;;24.16;100.00;101861.31;7368043;19;20965;-49
2023/09/07 09:53:09;;;;;;;22.73;14.50;;;;;;;24.24;100.00;101827.94;7391953;19;20411;-50
2023/09/07 09:55:41;;;;;;;20.80;13.90;;;;;;;24.32;100.00;101814.78;7371436;19;20421;-52
2023/09/07 09:58:11;;;;;;;20.33;12.23;;;;;;;24.34;100.00;101790.19;7402130;19;20411;-48
2023/09/07 10:00:42;;;;;;;11.43;6.80;;;;;;;24.36;100.00;101755.91;7374445;19;20764;-47
2023/09/07 10:03:15;;;;;;;43.40;24.37;;;;;;;24.51;100.00;101752.38;7398945;19;20763;-46
2023/09/07 10:05:47;;;;;;;14.10;8.10;;;;;;;24.56;100.00;101734.81;7374406;19;20458;-48
2023/09/07 10:08:18;;;;;;;45.80;25.80;;;;;;;24.63;100.00;101744.47;7397570;19;20388;-49
2023/09/07 10:10:55;;;;;;;25.00;11.57;;;;;;;24.68;100.00;101713.66;7373539;19;20743;-48
2023/09/07 10:13:33;;;;;;;20.23;10.90;;;;;;;24.62;100.00;101691.69;7396997;19;20432;-48
2023/09/07 10:16:04;;;;;;;35.30;19.23;;;;;;;24.67;100.00;101693.44;7374969;19;20898;-49
2023/09/07 10:18:38;;;;;;;6.87;5.10;;;;;;;24.74;100.00;101685.50;7397325;19;20447;-44
2023/09/07 10:21:08;;;;;;;12.50;5.00;;;;;;;24.86;100.00;101685.50;7374147;19;21011;-47
2023/09/07 10:23:39;;;;;;;13.67;7.90;;;;;;;24.94;100.00;101694.28;7398791;19;20483;-45
2023/09/07 10:26:17;;;;;;;12.10;8.10;;;;;;;25.05;100.00;101707.44;7374038;19;20810;-46
2023/09/07 10:28:47;;;;;;;23.67;14.40;;;;;;;25.10;100.00;101715.34;7398434;19;20526;-51
2023/09/07 10:31:18;;;;;;;18.43;11.40;;;;;;;25.20;100.00;101721.44;7373696;19;20996;-47
2023/09/07 10:33:49;;;;;;;27.13;16.57;;;;;;;25.21;100.00;101723.19;7396515;19;20415;-50
2023/09/07 10:36:25;;;;;;;19.07;8.97;;;;;;;25.35;100.00;101729.31;7372353;19;20463;-47
2023/09/07 10:38:57;;;;;;;14.53;8.00;;;;;;;25.41;100.00;101730.16;7399962;19;20458;-47
2023/09/07 10:41:30;;;;;;;13.73;7.83;;;;;;;25.42;100.00;101748.63;7372729;19;20515;-47
2023/09/07 10:43:59;;;;;;;17.97;8.93;;;;;;;25.42;100.00;101732.78;7396845;19;20407;-46
2023/09/07 10:46:29;;;;;;;8.53;5.20;;;;;;;25.51;100.00;101746.81;7372834;19;20443;-47
2023/09/07 10:48:59;;;;;;;7.00;4.70;;;;;;;25.53;100.00;101732.75;7399962;19;20507;-49
2023/09/07 10:51:29;;;;;;;13.10;7.40;;;;;;;25.54;100.00;101731.91;7372440;19;20455;-46
2023/09/07 10:53:59;;;;;;;31.00;15.80;;;;;;;25.59;100.00;101730.09;7398453;19;20419;-45
2023/09/07 10:56:32;;;;;;;40.43;21.37;;;;;;;25.78;100.00;101739.69;7372583;19;20515;-48
2023/09/07 10:59:02;;;;;;;6.47;5.17;;;;;;;25.97;100.00;101762.44;7397613;19;20464;-51
2023/09/07 11:01:33;;;;;;;17.70;10.37;;;;;;;26.05;100.00;101791.47;7372896;19;20617;-47
2023/09/07 11:04:04;;;;;;;13.57;8.07;;;;;;;25.95;100.00;101817.06;7397309;19;20391;-45
2023/09/07 11:06:34;;;;;;;8.63;5.03;;;;;;;25.85;100.00;101841.81;7371032;19;20427;-45
2023/09/07 11:09:08;;;;;;;13.03;7.30;;;;;;;25.86;100.00;101867.34;7398674;19;20443;-45
2023/09/07 11:11:41;;;;;;;21.40;12.17;;;;;;;25.91;100.00;101862.94;7371216;19;20869;-49
2023/09/07 11:14:10;;;;;;;9.20;5.23;;;;;;;25.98;100.00;101869.03;7397226;19;20424;-51
2023/09/07 11:16:40;;;;;;;13.87;7.40;;;;;;;26.11;100.00;101867.22;7371282;19;20439;-50
2023/09/07 11:19:10;;;;;;;18.77;9.67;;;;;;;26.17;100.00;101880.41;7393645;19;20562;-40
2023/09/07 11:21:40;;;;;;;50.40;31.63;;;;;;;26.20;100.00;101877.72;7367410;19;20431;-40
2023/09/07 11:24:10;;;;;;;7.83;4.73;;;;;;;26.26;100.00;101890.09;7394984;19;20491;-40
2023/09/07 11:26:47;;;;;;;21.10;12.17;;;;;;;26.24;100.00;101892.72;7370978;19;20454;-38